createdAt,value
2018-11-04T00:01:05.807Z,101224.70
2018-11-04T00:02:12.525Z,101222.52
2018-11-04T00:03:18.781Z,101224.77
2018-11-04T00:04:24.969Z,101224.01
2018-11-04T00:05:30.798Z,101220.59
2018-11-04T00:06:37.033Z,101221.92
2018-11-04T00:07:43.227Z,101226.25
2018-11-04T00:08:49.424Z,101222.79
2018-11-04T00:09:55.670Z,101220.16
2018-11-04T00:11:01.920Z,101218.79
2018-11-04T00:12:08.144Z,101220.55
2018-11-04T00:13:14.448Z,101215.69
2018-11-04T00:14:20.812Z,101213.94
2018-11-04T00:15:27.024Z,101215.25
2018-11-04T00:16:33.230Z,101212.26
2018-11-04T00:17:39.489Z,101212.20
2018-11-04T00:18:45.832Z,101213.45
2018-11-04T00:19:52.012Z,101211.26
2018-11-04T00:20:58.203Z,101203.87
2018-11-04T00:22:04.074Z,101208.21
2018-11-04T00:23:16.893Z,101208.53
2018-11-04T00:24:23.070Z,101204.85
2018-11-04T00:25:29.284Z,101202.30
2018-11-04T00:26:35.475Z,101203.28
2018-11-04T00:27:41.683Z,101204.97
2018-11-04T00:28:47.910Z,101199.55
2018-11-04T00:29:54.157Z,101199.98
2018-11-04T00:31:00.549Z,101199.60
2018-11-04T00:32:06.786Z,101197.00
2018-11-04T00:33:13.033Z,101204.85
2018-11-04T00:34:20.238Z,101194.01
2018-11-04T00:35:27.324Z,101197.49
2018-11-04T00:36:33.531Z,101199.23
2018-11-04T00:37:39.735Z,101198.86
2018-11-04T00:38:45.961Z,101196.64
2018-11-04T00:39:52.171Z,101197.19
2018-11-04T00:40:58.368Z,101195.88
2018-11-04T00:42:04.568Z,101196.18
2018-11-04T00:43:10.746Z,101198.53
2018-11-04T00:44:20.192Z,101200.28
2018-11-04T00:45:30.108Z,101197.86
2018-11-04T00:46:36.479Z,101194.83
2018-11-04T00:47:42.352Z,101201.43
2018-11-04T00:48:48.684Z,101192.33
2018-11-04T00:49:55.037Z,101195.75
2018-11-04T00:51:01.216Z,101194.75
2018-11-04T00:52:07.093Z,101194.31
2018-11-04T00:53:13.321Z,101187.27
2018-11-04T00:54:19.548Z,101191.03
2018-11-04T00:55:25.785Z,101183.55
2018-11-04T00:56:31.968Z,101181.64
2018-11-04T00:57:37.828Z,101177.86
2018-11-04T00:58:44.043Z,101175.80
2018-11-04T00:59:50.232Z,101179.81
2018-11-04T01:00:56.493Z,101175.02
2018-11-04T01:02:02.737Z,101177.40
2018-11-04T01:03:08.932Z,101172.33
2018-11-04T01:04:14.924Z,101168.12
2018-11-04T01:05:21.263Z,101174.30
2018-11-04T01:06:27.195Z,101171.95
2018-11-04T01:07:33.054Z,101164.73
2018-11-04T01:08:39.284Z,101171.22
2018-11-04T01:09:45.533Z,101164.22
2018-11-04T01:10:51.797Z,101169.84
2018-11-04T01:11:58.070Z,101161.61
2018-11-04T01:13:04.574Z,101170.75
2018-11-04T01:14:10.798Z,101162.91
2018-11-04T01:15:17.047Z,101171.57
2018-11-04T01:16:23.277Z,101164.18
2018-11-04T01:17:29.570Z,101161.20
2018-11-04T01:18:35.722Z,101158.58
2018-11-04T01:19:41.891Z,101158.13
2018-11-04T01:20:48.109Z,101150.11
2018-11-04T01:21:54.339Z,101153.95
2018-11-04T01:23:00.583Z,101149.24
2018-11-04T01:24:06.449Z,101151.47
2018-11-04T01:25:12.617Z,101154.95
2018-11-04T01:26:22.447Z,101152.36
2018-11-04T01:27:31.597Z,101151.53
2018-11-04T01:28:37.814Z,101151.95
2018-11-04T01:29:44.061Z,101146.69
2018-11-04T01:30:50.306Z,101144.56
2018-11-04T01:31:56.538Z,101149.88
2018-11-04T01:33:02.708Z,101144.70
2018-11-04T01:34:08.879Z,101145.14
2018-11-04T01:35:15.110Z,101148.13
2018-11-04T01:36:21.518Z,101145.89
2018-11-04T01:37:27.685Z,101141.97
2018-11-04T01:38:33.622Z,101139.84
2018-11-04T01:39:40.096Z,101140.72
2018-11-04T01:40:46.908Z,101142.45
2018-11-04T01:41:53.671Z,101139.35
2018-11-04T01:42:59.873Z,101134.11
2018-11-04T01:44:05.796Z,101134.91
2018-11-04T01:45:12.023Z,101132.25
2018-11-04T01:46:18.360Z,101123.10
2018-11-04T01:47:24.593Z,101124.42
2018-11-04T01:48:31.974Z,101122.23
2018-11-04T01:49:38.143Z,101127.45
2018-11-04T01:50:44.435Z,101125.29
2018-11-04T01:51:50.684Z,101119.19
2018-11-04T01:52:56.982Z,101117.94
2018-11-04T01:54:02.804Z,101111.91
2018-11-04T01:55:08.645Z,101116.62
2018-11-04T01:56:14.862Z,101110.41
2018-11-04T01:57:21.036Z,101111.56
2018-11-04T01:58:26.956Z,101113.80
2018-11-04T01:59:33.178Z,101118.53
2018-11-04T02:00:38.666Z,101114.09
2018-11-04T02:01:43.534Z,101114.11
2018-11-04T02:02:49.740Z,101105.02
2018-11-04T02:03:55.943Z,101105.08
2018-11-04T02:05:02.145Z,101112.88
2018-11-04T02:06:08.361Z,101114.53
2018-11-04T02:07:14.617Z,101109.09
2018-11-04T02:08:22.910Z,101104.78
2018-11-04T02:09:33.405Z,101103.55
2018-11-04T02:10:39.641Z,101099.41
2018-11-04T02:11:45.881Z,101098.63
2018-11-04T02:12:52.095Z,101092.11
2018-11-04T02:13:58.515Z,101094.33
2018-11-04T02:15:03.793Z,101090.73
2018-11-04T02:16:09.696Z,101088.40
2018-11-04T02:17:15.868Z,101088.00
2018-11-04T02:18:22.078Z,101088.82
2018-11-04T02:19:28.313Z,101094.19
2018-11-04T02:20:34.509Z,101087.66
2018-11-04T02:21:40.744Z,101087.68
2018-11-04T02:22:46.706Z,101082.43
2018-11-04T02:23:55.926Z,101085.92
2018-11-04T02:25:02.081Z,101084.59
2018-11-04T02:26:08.279Z,101083.22
2018-11-04T02:27:14.554Z,101081.50
2018-11-04T02:28:20.774Z,101074.94
2018-11-04T02:29:36.132Z,101081.94
2018-11-04T02:30:43.283Z,101077.20
2018-11-04T02:31:49.508Z,101074.74
2018-11-04T02:32:55.684Z,101071.78
2018-11-04T02:34:02.347Z,101070.09
2018-11-04T02:35:08.209Z,101069.16
2018-11-04T02:36:14.497Z,101065.69
2018-11-04T02:37:20.704Z,101066.53
2018-11-04T02:38:26.923Z,101066.95
2018-11-04T02:39:33.177Z,101067.77
2018-11-04T02:40:39.347Z,101065.16
2018-11-04T02:41:45.620Z,101061.61
2018-11-04T02:42:51.852Z,101065.94
2018-11-04T02:43:58.170Z,101062.45
2018-11-04T02:45:04.049Z,101059.79
2018-11-04T02:46:10.300Z,101058.92
2018-11-04T02:47:16.517Z,101058.52
2018-11-04T02:48:22.708Z,101052.52
2018-11-04T02:49:28.897Z,101046.48
2018-11-04T02:50:35.153Z,101048.25
2018-11-04T02:51:41.369Z,101049.61
2018-11-04T02:52:47.577Z,101046.93
2018-11-04T02:53:53.804Z,101041.27
2018-11-04T02:55:00.032Z,101042.59
2018-11-04T02:56:06.213Z,101036.13
2018-11-04T02:57:12.448Z,101036.11
2018-11-04T02:58:18.723Z,101027.78
2018-11-04T02:59:24.956Z,101026.39
2018-11-04T03:00:31.127Z,101029.96
2018-11-04T03:01:37.360Z,101033.06
2018-11-04T03:02:43.630Z,101030.41
2018-11-04T03:03:49.805Z,101033.50
2018-11-04T03:04:56.027Z,101030.03
2018-11-04T03:06:02.305Z,101032.66
2018-11-04T03:07:08.191Z,101026.55
2018-11-04T03:08:14.457Z,101027.00
2018-11-04T03:09:20.685Z,101027.47
2018-11-04T03:10:26.959Z,101024.38
2018-11-04T03:11:33.198Z,101023.06
2018-11-04T03:12:39.388Z,101016.52
2018-11-04T03:13:46.566Z,101020.51
2018-11-04T03:14:52.827Z,101027.36
2018-11-04T03:15:59.025Z,101023.83
2018-11-04T03:17:04.878Z,101025.17
2018-11-04T03:18:11.141Z,101019.11
2018-11-04T03:19:17.388Z,101022.19
2018-11-04T03:20:23.602Z,101020.44
2018-11-04T03:21:30.829Z,101021.31
2018-11-04T03:22:37.043Z,101023.06
2018-11-04T03:23:43.221Z,101023.91
2018-11-04T03:24:49.516Z,101020.09
2018-11-04T03:25:55.930Z,101019.28
2018-11-04T03:27:02.161Z,101023.63
2018-11-04T03:28:08.346Z,101021.91
2018-11-04T03:29:14.573Z,101019.30
2018-11-04T03:30:20.805Z,101022.36
2018-11-04T03:31:27.214Z,101023.22
2018-11-04T03:32:33.412Z,101015.44
2018-11-04T03:33:39.660Z,101018.94
2018-11-04T03:34:45.851Z,101017.63
2018-11-04T03:35:52.060Z,101011.11
2018-11-04T03:36:58.306Z,101010.28
2018-11-04T03:38:04.549Z,101008.12
2018-11-04T03:39:10.761Z,101009.85
2018-11-04T03:40:17.625Z,101009.44
2018-11-04T03:41:23.842Z,101004.20
2018-11-04T03:42:29.764Z,101006.36
2018-11-04T03:43:35.929Z,101008.12
2018-11-04T03:44:42.101Z,101003.70
2018-11-04T03:45:48.330Z,100998.02
2018-11-04T03:46:54.513Z,101001.15
2018-11-04T03:48:00.710Z,100990.27
2018-11-04T03:49:06.922Z,100996.37
2018-11-04T03:50:13.140Z,100987.22
2018-11-04T03:51:19.340Z,100991.58
2018-11-04T03:52:25.666Z,100986.80
2018-11-04T03:53:31.867Z,100986.41
2018-11-04T03:54:38.052Z,100984.62
2018-11-04T03:55:44.231Z,100981.63
2018-11-04T03:56:50.456Z,100979.39
2018-11-04T03:57:56.645Z,100984.61
2018-11-04T03:59:02.788Z,100987.85
2018-11-04T04:00:08.080Z,100977.04
2018-11-04T04:01:14.342Z,100983.59
2018-11-04T04:02:20.567Z,100978.41
2018-11-04T04:03:27.633Z,100979.67
2018-11-04T04:04:33.907Z,100976.62
2018-11-04T04:05:40.166Z,100977.10
2018-11-04T04:06:46.362Z,100975.81
2018-11-04T04:07:52.590Z,100975.80
2018-11-04T04:08:58.852Z,100975.31
2018-11-04T04:10:04.365Z,100971.36
2018-11-04T04:11:10.667Z,100973.05
2018-11-04T04:12:16.876Z,100971.36
2018-11-04T04:13:23.078Z,100966.97
2018-11-04T04:14:29.280Z,100967.36
2018-11-04T04:15:35.490Z,100967.80
2018-11-04T04:16:41.742Z,100962.59
2018-11-04T04:17:47.956Z,100961.31
2018-11-04T04:18:53.853Z,100956.55
2018-11-04T04:19:59.787Z,100956.13
2018-11-04T04:21:05.781Z,100951.77
2018-11-04T04:22:11.977Z,100953.06
2018-11-04T04:23:18.185Z,100949.59
2018-11-04T04:24:24.415Z,100949.91
2018-11-04T04:25:30.607Z,100943.37
2018-11-04T04:26:36.833Z,100952.07
2018-11-04T04:27:43.030Z,100954.17
2018-11-04T04:28:49.247Z,100953.29
2018-11-04T04:29:55.437Z,100951.54
2018-11-04T04:31:01.643Z,100950.08
2018-11-04T04:32:07.852Z,100946.92
2018-11-04T04:33:14.081Z,100953.53
2018-11-04T04:34:20.445Z,100943.98
2018-11-04T04:35:26.647Z,100943.88
2018-11-04T04:36:32.889Z,100942.94
2018-11-04T04:37:39.054Z,100944.68
2018-11-04T04:38:45.216Z,100943.80
2018-11-04T04:39:52.200Z,100944.59
2018-11-04T04:40:58.038Z,100939.88
2018-11-04T04:42:03.956Z,100943.82
2018-11-04T04:43:10.146Z,100939.43
2018-11-04T04:44:16.370Z,100940.22
2018-11-04T04:45:22.569Z,100937.61
2018-11-04T04:46:28.753Z,100935.89
2018-11-04T04:47:34.929Z,100933.70
2018-11-04T04:48:41.167Z,100932.41
2018-11-04T04:49:47.415Z,100929.48
2018-11-04T04:50:53.598Z,100927.78
2018-11-04T04:51:59.818Z,100929.53
2018-11-04T04:53:05.644Z,100926.46
2018-11-04T04:54:11.816Z,100923.39
2018-11-04T04:55:17.980Z,100920.34
2018-11-04T04:56:27.721Z,100921.66
2018-11-04T04:57:33.880Z,100916.94
2018-11-04T04:58:40.065Z,100921.38
2018-11-04T04:59:46.300Z,100912.19
2018-11-04T05:00:52.246Z,100917.41
2018-11-04T05:01:58.494Z,100919.59
2018-11-04T05:03:04.390Z,100916.61
2018-11-04T05:04:10.627Z,100914.50
2018-11-04T05:05:16.853Z,100916.26
2018-11-04T05:06:23.086Z,100918.44
2018-11-04T05:07:29.347Z,100914.09
2018-11-04T05:08:35.578Z,100917.97
2018-11-04T05:09:41.809Z,100916.25
2018-11-04T05:10:48.021Z,100916.25
2018-11-04T05:11:56.677Z,100911.84
2018-11-04T05:13:03.266Z,100913.58
2018-11-04T05:14:09.822Z,100905.26
2018-11-04T05:15:16.377Z,100909.45
2018-11-04T05:16:23.630Z,100913.66
2018-11-04T05:17:30.057Z,100913.20
2018-11-04T05:18:36.266Z,100920.55
2018-11-04T05:19:42.509Z,100918.75
2018-11-04T05:20:48.734Z,100921.40
2018-11-04T05:21:55.152Z,100916.61
2018-11-04T05:23:01.783Z,100916.16
2018-11-04T05:24:08.027Z,100909.31
2018-11-04T05:25:14.354Z,100911.05
2018-11-04T05:26:20.694Z,100906.13
2018-11-04T05:27:27.164Z,100909.70
2018-11-04T05:28:33.436Z,100907.99
2018-11-04T05:29:39.867Z,100912.41
2018-11-04T05:30:46.253Z,100909.36
2018-11-04T05:31:52.734Z,100904.93
2018-11-04T05:32:59.096Z,100907.88
2018-11-04T05:34:05.889Z,100905.66
2018-11-04T05:35:12.363Z,100898.63
2018-11-04T05:36:18.622Z,100898.20
2018-11-04T05:37:25.713Z,100896.89
2018-11-04T05:38:33.015Z,100902.17
2018-11-04T05:39:39.677Z,100904.81
2018-11-04T05:40:46.286Z,100909.17
2018-11-04T05:41:52.739Z,100904.70
2018-11-04T05:42:59.545Z,100902.23
2018-11-04T05:44:07.073Z,100904.42
2018-11-04T05:45:13.309Z,100901.39
2018-11-04T05:46:19.815Z,100906.19
2018-11-04T05:47:26.044Z,100908.44
2018-11-04T05:48:31.872Z,100909.74
2018-11-04T05:49:38.073Z,100905.30
2018-11-04T05:50:44.568Z,100911.67
2018-11-04T05:51:51.306Z,100906.92
2018-11-04T05:52:57.857Z,100909.64
2018-11-04T05:54:04.065Z,100908.79
2018-11-04T05:55:10.649Z,100915.63
2018-11-04T05:56:16.955Z,100911.31
2018-11-04T05:57:23.441Z,100907.97
2018-11-04T05:58:31.169Z,100914.16
2018-11-04T05:59:38.689Z,100914.73
2018-11-04T06:00:44.876Z,100912.61
2018-11-04T06:01:51.103Z,100919.08
2018-11-04T06:02:57.334Z,100921.08
2018-11-04T06:04:03.508Z,100928.50
2018-11-04T06:05:09.352Z,100919.86
2018-11-04T06:06:15.565Z,100917.74
2018-11-04T06:07:21.421Z,100918.75
2018-11-04T06:08:27.587Z,100920.48
2018-11-04T06:09:33.775Z,100920.54
2018-11-04T06:10:40.036Z,100922.03
2018-11-04T06:11:46.253Z,100918.29
2018-11-04T06:12:52.480Z,100918.34
2018-11-04T06:13:58.683Z,100923.98
2018-11-04T06:15:04.222Z,100921.61
2018-11-04T06:16:10.394Z,100920.73
2018-11-04T06:17:16.648Z,100917.31
2018-11-04T06:18:22.877Z,100915.27
2018-11-04T06:19:29.155Z,100921.87
2018-11-04T06:20:35.505Z,100920.63
2018-11-04T06:21:41.755Z,100920.58
2018-11-04T06:22:47.974Z,100921.36
2018-11-04T06:23:54.174Z,100921.87
2018-11-04T06:25:00.409Z,100919.77
2018-11-04T06:26:06.643Z,100924.66
2018-11-04T06:27:12.867Z,100923.23
2018-11-04T06:28:19.031Z,100922.75
2018-11-04T06:29:25.268Z,100924.55
2018-11-04T06:30:31.477Z,100927.91
2018-11-04T06:31:37.678Z,100925.42
2018-11-04T06:32:44.819Z,100931.20
2018-11-04T06:33:51.018Z,100932.68
2018-11-04T06:34:57.260Z,100933.14
2018-11-04T06:36:03.442Z,100930.50
2018-11-04T06:37:09.626Z,100935.73
2018-11-04T06:38:15.844Z,100930.94
2018-11-04T06:39:21.917Z,100934.45
2018-11-04T06:40:28.109Z,100934.44
2018-11-04T06:41:34.494Z,100938.77
2018-11-04T06:42:40.722Z,100932.13
2018-11-04T06:43:46.966Z,100929.08
2018-11-04T06:44:53.165Z,100928.13
2018-11-04T06:45:59.402Z,100925.50
2018-11-04T06:47:05.324Z,100930.77
2018-11-04T06:48:11.717Z,100926.74
2018-11-04T06:49:17.954Z,100923.84
2018-11-04T06:50:24.158Z,100930.73
2018-11-04T06:51:30.529Z,100925.66
2018-11-04T06:52:36.889Z,100925.23
2018-11-04T06:53:43.129Z,100929.41
2018-11-04T06:54:49.372Z,100931.87
2018-11-04T06:55:55.538Z,100930.97
2018-11-04T06:57:01.752Z,100924.12
2018-11-04T06:58:08.005Z,100927.23
2018-11-04T06:59:14.189Z,100926.22
2018-11-04T07:00:20.470Z,100925.14
2018-11-04T07:01:26.699Z,100929.35
2018-11-04T07:02:40.103Z,100931.27
2018-11-04T07:03:45.603Z,100929.63
2018-11-04T07:04:51.537Z,100928.84
2018-11-04T07:05:57.748Z,100931.25
2018-11-04T07:07:03.549Z,100939.42
2018-11-04T07:08:09.729Z,100933.80
2018-11-04T07:09:16.001Z,100933.88
2018-11-04T07:10:22.241Z,100929.49
2018-11-04T07:11:28.435Z,100926.20
2018-11-04T07:12:34.652Z,100921.48
2018-11-04T07:13:40.864Z,100923.38
2018-11-04T07:14:47.045Z,100923.34
2018-11-04T07:15:53.242Z,100928.66
2018-11-04T07:16:59.102Z,100922.11
2018-11-04T07:18:04.940Z,100925.14
2018-11-04T07:19:11.127Z,100923.77
2018-11-04T07:20:17.319Z,100918.09
2018-11-04T07:21:23.515Z,100921.66
2018-11-04T07:22:29.673Z,100924.20
2018-11-04T07:23:37.544Z,100918.51
2018-11-04T07:24:44.386Z,100921.45
2018-11-04T07:25:50.594Z,100926.69
2018-11-04T07:26:56.850Z,100924.09
2018-11-04T07:28:03.063Z,100922.38
2018-11-04T07:29:09.310Z,100923.68
2018-11-04T07:30:15.484Z,100924.87
2018-11-04T07:31:21.747Z,100927.77
2018-11-04T07:32:27.952Z,100926.90
2018-11-04T07:33:34.180Z,100927.80
2018-11-04T07:34:40.372Z,100922.58
2018-11-04T07:35:46.598Z,100919.82
2018-11-04T07:36:52.820Z,100919.36
2018-11-04T07:37:59.017Z,100924.36
2018-11-04T07:39:04.250Z,100920.41
2018-11-04T07:40:10.123Z,100919.09
2018-11-04T07:41:16.333Z,100922.09
2018-11-04T07:42:22.535Z,100920.84
2018-11-04T07:43:28.742Z,100919.47
2018-11-04T07:44:37.717Z,100918.90
2018-11-04T07:45:49.260Z,100917.20
2018-11-04T07:46:55.547Z,100929.91
2018-11-04T07:48:01.773Z,100923.62
2018-11-04T07:49:07.639Z,100932.42
2018-11-04T07:50:14.743Z,100933.53
2018-11-04T07:51:21.033Z,100928.80
2018-11-04T07:52:27.268Z,100934.36
2018-11-04T07:53:33.517Z,100930.58
2018-11-04T07:54:39.797Z,100931.90
2018-11-04T07:55:46.179Z,100929.10
2018-11-04T07:56:52.450Z,100927.78
2018-11-04T07:57:58.579Z,100918.66
2018-11-04T07:59:04.499Z,100923.00
2018-11-04T08:00:09.996Z,100921.56
2018-11-04T08:01:16.226Z,100924.72
2018-11-04T08:02:22.491Z,100929.98
2018-11-04T08:03:28.761Z,100927.42
2018-11-04T08:04:35.143Z,100918.66
2018-11-04T08:05:41.326Z,100922.55
2018-11-04T08:06:47.508Z,100919.95
2018-11-04T08:07:53.408Z,100921.77
2018-11-04T08:08:59.845Z,100923.06
2018-11-04T08:10:05.318Z,100913.05
2018-11-04T08:11:11.585Z,100916.05
2018-11-04T08:12:17.774Z,100907.81
2018-11-04T08:13:24.050Z,100906.44
2018-11-04T08:14:30.391Z,100917.23
2018-11-04T08:15:36.628Z,100913.72
2018-11-04T08:16:42.869Z,100908.07
2018-11-04T08:17:49.052Z,100903.62
2018-11-04T08:18:55.282Z,100904.12
2018-11-04T08:20:01.537Z,100898.48
2018-11-04T08:21:07.866Z,100901.11
2018-11-04T08:22:14.237Z,100894.52
2018-11-04T08:23:20.501Z,100894.42
2018-11-04T08:24:26.732Z,100897.39
2018-11-04T08:25:33.020Z,100897.86
2018-11-04T08:26:42.146Z,100899.23
2018-11-04T08:27:50.042Z,100897.16
2018-11-04T08:28:56.736Z,100901.85
2018-11-04T08:30:02.524Z,100899.22
2018-11-04T08:31:08.818Z,100898.25
2018-11-04T08:32:15.042Z,100901.20
2018-11-04T08:33:21.236Z,100900.27
2018-11-04T08:34:27.495Z,100890.73
2018-11-04T08:35:33.732Z,100889.81
2018-11-04T08:36:39.951Z,100888.39
2018-11-04T08:37:46.112Z,100892.66
2018-11-04T08:38:53.442Z,100890.56
2018-11-04T08:39:59.652Z,100893.24
2018-11-04T08:41:06.052Z,100890.19
2018-11-04T08:42:12.250Z,100893.63
2018-11-04T08:43:18.460Z,100879.67
2018-11-04T08:44:24.694Z,100879.21
2018-11-04T08:45:31.509Z,100881.37
2018-11-04T08:46:38.968Z,100876.95
2018-11-04T08:47:46.267Z,100880.23
2018-11-04T08:48:53.149Z,100874.23
2018-11-04T08:50:00.288Z,100873.41
2018-11-04T08:51:07.124Z,100876.48
2018-11-04T08:52:14.149Z,100876.12
2018-11-04T08:53:20.756Z,100872.34
2018-11-04T08:54:26.937Z,100872.76
2018-11-04T08:55:32.947Z,100864.14
2018-11-04T08:56:39.087Z,100871.91
2018-11-04T08:57:45.248Z,100868.42
2018-11-04T08:58:51.475Z,100871.44
2018-11-04T08:59:57.675Z,100869.73
2018-11-04T09:01:03.821Z,100871.09
2018-11-04T09:02:10.042Z,100874.16
2018-11-04T09:03:16.269Z,100872.79
2018-11-04T09:04:22.624Z,100871.44
2018-11-04T09:05:28.845Z,100871.44
2018-11-04T09:06:35.085Z,100871.36
2018-11-04T09:07:41.938Z,100869.47
2018-11-04T09:08:48.140Z,100866.22
2018-11-04T09:09:54.369Z,100867.14
2018-11-04T09:11:00.626Z,100864.59
2018-11-04T09:12:06.510Z,100861.52
2018-11-04T09:13:12.684Z,100859.72
2018-11-04T09:14:18.922Z,100853.50
2018-11-04T09:15:25.333Z,100855.21
2018-11-04T09:16:31.510Z,100857.50
2018-11-04T09:17:37.736Z,100856.55
2018-11-04T09:18:44.004Z,100853.41
2018-11-04T09:19:50.257Z,100852.59
2018-11-04T09:20:56.479Z,100850.84
2018-11-04T09:22:02.925Z,100851.30
2018-11-04T09:23:09.133Z,100849.89
2018-11-04T09:24:15.134Z,100855.05
2018-11-04T09:25:21.290Z,100853.63
2018-11-04T09:26:27.488Z,100851.07
2018-11-04T09:27:33.362Z,100852.80
2018-11-04T09:28:39.570Z,100861.03
2018-11-04T09:29:45.799Z,100854.88
2018-11-04T09:30:52.211Z,100855.27
2018-11-04T09:31:58.651Z,100850.97
2018-11-04T09:33:04.719Z,100853.47
2018-11-04T09:34:11.310Z,100852.92
2018-11-04T09:35:17.651Z,100849.92
2018-11-04T09:36:24.509Z,100850.84
2018-11-04T09:37:30.801Z,100846.83
2018-11-04T09:38:37.008Z,100849.42
2018-11-04T09:39:43.280Z,100837.59
2018-11-04T09:40:49.510Z,100843.20
2018-11-04T09:41:55.433Z,100843.98
2018-11-04T09:43:01.674Z,100835.27
2018-11-04T09:44:07.174Z,100836.11
2018-11-04T09:45:13.368Z,100831.62
2018-11-04T09:46:19.599Z,100828.06
2018-11-04T09:47:25.824Z,100831.46
2018-11-04T09:48:32.016Z,100827.94
2018-11-04T09:49:38.233Z,100825.30
2018-11-04T09:50:44.896Z,100832.18
2018-11-04T09:51:52.842Z,100830.34
2018-11-04T09:52:59.061Z,100833.32
2018-11-04T09:54:04.946Z,100833.41
2018-11-04T09:55:12.054Z,100835.70
2018-11-04T09:56:18.326Z,100831.75
2018-11-04T09:57:24.725Z,100832.06
2018-11-04T09:58:30.940Z,100836.34
2018-11-04T09:59:37.155Z,100834.13
2018-11-04T10:00:43.352Z,100836.20
2018-11-04T10:01:49.605Z,100834.81
2018-11-04T10:02:55.826Z,100839.17
2018-11-04T10:04:01.991Z,100837.01
2018-11-04T10:05:08.192Z,100835.34
2018-11-04T10:06:14.413Z,100840.58
2018-11-04T10:07:20.343Z,100831.85
2018-11-04T10:08:26.763Z,100833.58
2018-11-04T10:09:32.953Z,100824.77
2018-11-04T10:10:39.175Z,100824.23
2018-11-04T10:11:45.377Z,100819.00
2018-11-04T10:12:51.575Z,100814.70
2018-11-04T10:13:57.784Z,100819.11
2018-11-04T10:15:03.600Z,100822.58
2018-11-04T10:16:09.825Z,100808.48
2018-11-04T10:17:16.224Z,100809.75
2018-11-04T10:18:22.410Z,100808.02
2018-11-04T10:19:28.649Z,100808.38
2018-11-04T10:20:35.380Z,100805.72
2018-11-04T10:21:41.432Z,100806.59
2018-11-04T10:22:47.641Z,100808.36
2018-11-04T10:23:53.820Z,100806.14
2018-11-04T10:25:00.079Z,100807.48
2018-11-04T10:26:06.296Z,100802.61
2018-11-04T10:27:12.457Z,100796.76
2018-11-04T10:28:18.703Z,100796.76
2018-11-04T10:29:24.889Z,100797.75
2018-11-04T10:30:31.274Z,100796.87
2018-11-04T10:31:37.614Z,100797.75
2018-11-04T10:32:46.887Z,100797.12
2018-11-04T10:33:55.299Z,100791.81
2018-11-04T10:35:01.545Z,100790.94
2018-11-04T10:36:07.794Z,100782.55
2018-11-04T10:37:14.216Z,100779.05
2018-11-04T10:38:20.580Z,100774.69
2018-11-04T10:39:26.756Z,100775.56
2018-11-04T10:40:32.947Z,100773.78
2018-11-04T10:41:39.145Z,100773.78
2018-11-04T10:42:45.437Z,100771.18
2018-11-04T10:43:51.441Z,100772.29
2018-11-04T10:44:57.647Z,100780.00
2018-11-04T10:46:03.832Z,100769.45
2018-11-04T10:47:10.025Z,100768.20
2018-11-04T10:48:16.245Z,100758.28
2018-11-04T10:49:22.513Z,100770.09
2018-11-04T10:50:28.933Z,100769.23
2018-11-04T10:51:35.170Z,100761.45
2018-11-04T10:52:41.397Z,100756.11
2018-11-04T10:53:47.612Z,100748.56
2018-11-04T10:54:53.874Z,100755.50
2018-11-04T10:56:00.105Z,100755.42
2018-11-04T10:57:05.976Z,100758.09
2018-11-04T10:58:12.278Z,100757.61
2018-11-04T10:59:18.502Z,100756.55
2018-11-04T11:00:24.481Z,100754.73
2018-11-04T11:01:30.710Z,100755.08
2018-11-04T11:02:36.887Z,100761.62
2018-11-04T11:03:43.103Z,100753.19
2018-11-04T11:04:49.334Z,100749.06
2018-11-04T11:05:55.564Z,100744.36
2018-11-04T11:07:01.716Z,100754.92
2018-11-04T11:08:07.910Z,100752.80
2018-11-04T11:09:14.160Z,100754.98
2018-11-04T11:10:20.413Z,100752.25
2018-11-04T11:11:26.626Z,100753.09
2018-11-04T11:12:32.829Z,100751.28
2018-11-04T11:13:39.034Z,100745.09
2018-11-04T11:14:45.262Z,100744.89
2018-11-04T11:15:51.467Z,100737.88
2018-11-04T11:16:57.693Z,100737.31
2018-11-04T11:18:04.096Z,100738.87
2018-11-04T11:19:10.294Z,100737.02
2018-11-04T11:20:16.526Z,100737.31
2018-11-04T11:21:22.770Z,100741.56
2018-11-04T11:22:28.665Z,100738.57
2018-11-04T11:23:35.020Z,100740.27
2018-11-04T11:24:41.286Z,100735.05
2018-11-04T11:25:47.501Z,100738.74
2018-11-04T11:26:53.717Z,100728.25
2018-11-04T11:27:59.915Z,100730.06
2018-11-04T11:29:05.760Z,100724.98
2018-11-04T11:30:11.715Z,100721.02
2018-11-04T11:31:18.077Z,100720.91
2018-11-04T11:32:24.268Z,100718.20
2018-11-04T11:33:30.424Z,100717.81
2018-11-04T11:34:36.604Z,100719.52
2018-11-04T11:35:42.823Z,100718.07
2018-11-04T11:36:51.230Z,100714.96
2018-11-04T11:37:57.498Z,100712.25
2018-11-04T11:39:03.594Z,100712.30
2018-11-04T11:40:09.118Z,100706.93
2018-11-04T11:41:15.348Z,100705.17
2018-11-04T11:42:21.534Z,100701.11
2018-11-04T11:43:27.734Z,100706.69
2018-11-04T11:44:33.943Z,100705.83
2018-11-04T11:45:40.141Z,100697.20
2018-11-04T11:46:46.362Z,100695.39
2018-11-04T11:47:52.554Z,100690.89
2018-11-04T11:48:58.752Z,100690.71
2018-11-04T11:50:04.270Z,100684.23
2018-11-04T11:51:10.485Z,100689.17
2018-11-04T11:52:16.723Z,100688.95
2018-11-04T11:53:22.899Z,100690.38
2018-11-04T11:54:29.088Z,100687.38
2018-11-04T11:55:34.983Z,100691.64
2018-11-04T11:56:41.220Z,100690.22
2018-11-04T11:57:47.415Z,100696.70
2018-11-04T11:58:53.653Z,100686.61
2018-11-04T11:59:59.864Z,100686.88
2018-11-04T12:01:06.059Z,100691.27
2018-11-04T12:02:12.343Z,100685.95
2018-11-04T12:03:18.751Z,100689.36
2018-11-04T12:04:24.948Z,100685.46
2018-11-04T12:05:31.158Z,100683.33
2018-11-04T12:06:37.386Z,100684.54
2018-11-04T12:07:43.802Z,100685.61
2018-11-04T12:08:49.990Z,100683.26
2018-11-04T12:09:56.225Z,100685.15
2018-11-04T12:11:02.116Z,100679.68
2018-11-04T12:12:08.368Z,100680.29
2018-11-04T12:13:14.614Z,100672.34
2018-11-04T12:14:20.846Z,100672.98
2018-11-04T12:15:27.061Z,100678.90
2018-11-04T12:16:33.292Z,100671.15
2018-11-04T12:17:39.474Z,100668.41
2018-11-04T12:18:45.689Z,100668.71
2018-11-04T12:19:51.878Z,100664.05
2018-11-04T12:20:58.121Z,100659.23
2018-11-04T12:22:04.038Z,100656.66
2018-11-04T12:23:09.858Z,100654.33
2018-11-04T12:24:16.066Z,100642.45
2018-11-04T12:25:22.263Z,100644.80
2018-11-04T12:26:28.472Z,100642.97
2018-11-04T12:27:34.686Z,100637.55
2018-11-04T12:28:40.879Z,100638.00
2018-11-04T12:29:48.099Z,100637.72
2018-11-04T12:30:56.355Z,100639.42
2018-11-04T12:32:05.090Z,100635.83
2018-11-04T12:33:11.752Z,100634.37
2018-11-04T12:34:19.172Z,100626.45
2018-11-04T12:35:26.667Z,100631.61
2018-11-04T12:36:34.240Z,100630.25
2018-11-04T12:37:41.040Z,100628.52